createdAt,value
2022-11-15T00:00:32.977Z,99222.78
2022-11-15T00:03:01.120Z,99221.22
2022-11-15T00:05:28.750Z,99221.16
2022-11-15T00:07:59.728Z,99232.75
2022-11-15T00:10:27.549Z,99219.69
2022-11-15T00:12:55.413Z,99212.59
2022-11-15T00:15:23.273Z,99215.81
2022-11-15T00:17:50.871Z,99210.75
2022-11-15T00:20:20.597Z,99205.09
2022-11-15T00:22:48.214Z,99210.97
2022-11-15T00:25:16.263Z,99214.19
2022-11-15T00:27:43.902Z,99213.72
2022-11-15T00:30:11.498Z,99209.78
2022-11-15T00:32:41.862Z,99212.28
2022-11-15T00:35:09.499Z,99209.59
2022-11-15T00:37:37.101Z,99209.78
2022-11-15T00:40:04.686Z,99214.41
2022-11-15T00:42:32.329Z,99208.06
2022-11-15T00:45:00.346Z,99214.94
2022-11-15T00:47:28.223Z,99211.28
2022-11-15T00:49:55.815Z,99207.78
2022-11-15T00:52:23.462Z,99209.91
2022-11-15T00:54:51.069Z,99213.41
2022-11-15T00:57:20.467Z,99207.25
2022-11-15T00:59:48.083Z,99202.59
2022-11-15T01:02:15.646Z,99198.91
2022-11-15T01:04:43.275Z,99204.13
2022-11-15T01:07:10.920Z,99205.66
2022-11-15T01:09:38.963Z,99200.69
2022-11-15T01:12:06.594Z,99211.75
2022-11-15T01:14:34.185Z,99201.28
2022-11-15T01:17:01.766Z,99198.34
2022-11-15T01:19:29.394Z,99201.53
2022-11-15T01:21:57.923Z,99196.06
2022-11-15T01:24:25.511Z,99198.41
2022-11-15T01:26:53.141Z,99199.94
2022-11-15T01:29:21.192Z,99197.94
2022-11-15T01:31:48.787Z,99199.34
2022-11-15T01:34:19.471Z,99208.16
2022-11-15T01:36:47.056Z,99196.34
2022-11-15T01:39:14.601Z,99197.19
2022-11-15T01:41:42.271Z,99196.19
2022-11-15T01:44:09.813Z,99187.19
2022-11-15T01:46:39.115Z,99184.84
2022-11-15T01:49:06.745Z,99184.56
2022-11-15T01:51:34.657Z,99185.91
2022-11-15T01:54:02.263Z,99185.47
2022-11-15T01:56:29.899Z,99180.00
2022-11-15T01:58:57.523Z,99178.16
2022-11-15T02:01:25.120Z,99172.97
2022-11-15T02:03:52.722Z,99170.63
2022-11-15T02:06:20.265Z,99165.72
2022-11-15T02:08:47.807Z,99165.34
2022-11-15T02:11:15.718Z,99171.97
2022-11-15T02:13:43.688Z,99167.81
2022-11-15T02:16:11.271Z,99161.94
2022-11-15T02:18:38.870Z,99166.22
2022-11-15T02:21:06.392Z,99161.31
2022-11-15T02:23:34.570Z,99165.16
2022-11-15T02:26:02.332Z,99171.63
2022-11-15T02:28:29.878Z,99166.44
2022-11-15T02:30:57.418Z,99173.09
2022-11-15T02:33:25.058Z,99168.03
2022-11-15T02:35:53.405Z,99168.63
2022-11-15T02:38:20.926Z,99169.81
2022-11-15T02:40:48.492Z,99158.28
2022-11-15T02:43:33.747Z,99162.47
2022-11-15T02:46:04.386Z,99160.34
2022-11-15T02:48:31.920Z,99152.84
2022-11-15T02:50:59.485Z,99149.88
2022-11-15T02:53:27.326Z,99144.06
2022-11-15T02:55:55.223Z,99143.78
2022-11-15T02:58:25.098Z,99141.47
2022-11-15T03:00:52.812Z,99141.84
2022-11-15T03:03:20.433Z,99134.22
2022-11-15T03:05:48.209Z,99140.22
2022-11-15T03:08:15.846Z,99139.75
2022-11-15T03:10:43.773Z,99146.63
2022-11-15T03:13:11.329Z,99140.81
2022-11-15T03:15:38.900Z,99138.56
2022-11-15T03:18:06.876Z,99134.72
2022-11-15T03:20:34.428Z,99137.75
2022-11-15T03:23:04.764Z,99127.25
2022-11-15T03:25:32.307Z,99124.16
2022-11-15T03:27:59.846Z,99129.00
2022-11-15T03:30:27.444Z,99142.06
2022-11-15T03:32:55.016Z,99142.56
2022-11-15T03:35:24.282Z,99141.44
2022-11-15T03:37:51.882Z,99151.13
2022-11-15T03:40:19.483Z,99148.97
2022-11-15T03:42:47.080Z,99148.97
2022-11-15T03:45:16.025Z,99148.13
2022-11-15T03:47:44.628Z,99146.16
2022-11-15T03:50:12.177Z,99147.97
2022-11-15T03:52:39.748Z,99147.81
2022-11-15T03:55:07.312Z,99145.00
2022-11-15T03:57:34.899Z,99135.28
2022-11-15T04:00:02.815Z,99139.66
2022-11-15T04:02:30.766Z,99130.44
2022-11-15T04:04:58.310Z,99119.59
2022-11-15T04:07:25.991Z,99118.59
2022-11-15T04:10:06.906Z,99113.25
2022-11-15T04:12:34.560Z,99115.91
2022-11-15T04:15:11.196Z,99117.59
2022-11-15T04:17:38.791Z,99109.41
2022-11-15T04:20:24.578Z,99104.91
2022-11-15T04:23:09.754Z,99108.25
2022-11-15T04:25:37.370Z,99095.03
2022-11-15T04:28:04.914Z,99101.25
2022-11-15T04:30:32.754Z,99103.72
2022-11-15T04:33:00.301Z,99098.22
2022-11-15T04:35:27.853Z,99110.59
2022-11-15T04:37:55.475Z,99108.59
2022-11-15T04:40:23.032Z,99104.09
2022-11-15T04:42:50.955Z,99104.78
2022-11-15T04:45:18.996Z,99109.31
2022-11-15T04:47:47.065Z,99101.94
2022-11-15T04:50:15.949Z,99107.16
2022-11-15T04:52:43.548Z,99104.47
2022-11-15T04:55:11.486Z,99106.13
2022-11-15T04:57:39.064Z,99097.97
2022-11-15T05:00:06.684Z,99099.63
2022-11-15T05:02:48.016Z,99099.63
2022-11-15T05:05:15.973Z,99102.31
2022-11-15T05:07:43.553Z,99094.44
2022-11-15T05:10:11.109Z,99090.91
2022-11-15T05:12:38.697Z,99102.63
2022-11-15T05:15:06.274Z,99093.25
2022-11-15T05:17:34.250Z,99088.53
2022-11-15T05:20:01.868Z,99100.53
2022-11-15T05:22:29.527Z,99103.88
2022-11-15T05:24:57.107Z,99109.88
2022-11-15T05:27:27.897Z,99110.16
2022-11-15T05:29:55.887Z,99117.38
2022-11-15T05:32:23.440Z,99110.16
2022-11-15T05:34:51.147Z,99115.34
2022-11-15T05:37:18.943Z,99114.88
2022-11-15T05:39:46.539Z,99111.06
2022-11-15T05:42:14.538Z,99099.53
2022-11-15T05:44:42.230Z,99102.38
2022-11-15T05:47:09.839Z,99102.84
2022-11-15T05:49:37.807Z,99109.50
2022-11-15T05:52:05.422Z,99101.13
2022-11-15T05:54:33.359Z,99102.44
2022-11-15T05:57:01.084Z,99100.09
2022-11-15T05:59:28.733Z,99101.38
2022-11-15T06:01:56.416Z,99095.00
2022-11-15T06:04:25.230Z,99090.28
2022-11-15T06:06:53.219Z,99097.06
2022-11-15T06:09:20.983Z,99111.91
2022-11-15T06:11:49.177Z,99100.00
2022-11-15T06:14:16.766Z,99111.84
2022-11-15T06:16:45.124Z,99107.31
2022-11-15T06:19:13.410Z,99108.63
2022-11-15T06:21:41.048Z,99117.19
2022-11-15T06:24:08.679Z,99122.19
2022-11-15T06:26:36.995Z,99130.59
2022-11-15T06:29:05.146Z,99138.00
2022-11-15T06:31:33.120Z,99133.88
2022-11-15T06:34:01.275Z,99134.41
2022-11-15T06:36:28.889Z,99133.94
2022-11-15T06:38:56.473Z,99134.47
2022-11-15T06:41:26.058Z,99143.00
2022-11-15T06:43:54.101Z,99137.34
2022-11-15T06:46:21.743Z,99137.03
2022-11-15T06:48:50.366Z,99139.38
2022-11-15T06:51:17.926Z,99144.41
2022-11-15T06:53:46.710Z,99152.13
2022-11-15T06:56:15.072Z,99150.97
2022-11-15T06:58:42.768Z,99157.66
2022-11-15T07:01:10.618Z,99160.03
2022-11-15T07:03:38.466Z,99143.00
2022-11-15T07:06:07.652Z,99157.19
2022-11-15T07:08:35.633Z,99154.38
2022-11-15T07:11:03.423Z,99160.38
2022-11-15T07:13:31.657Z,99165.44
2022-11-15T07:15:59.391Z,99171.59
2022-11-15T07:18:28.682Z,99164.06
2022-11-15T07:20:56.349Z,99169.88
2022-11-15T07:23:24.043Z,99160.66
2022-11-15T07:25:52.024Z,99161.16
2022-11-15T07:28:19.653Z,99173.13
2022-11-15T07:30:47.537Z,99170.94
2022-11-15T07:33:15.721Z,99174.94
2022-11-15T07:35:43.786Z,99183.41
2022-11-15T07:38:11.489Z,99176.72
2022-11-15T07:40:39.249Z,99185.72
2022-11-15T07:43:07.910Z,99192.88
2022-11-15T07:45:36.164Z,99175.03
2022-11-15T07:48:04.055Z,99187.25
2022-11-15T07:50:32.313Z,99187.25
2022-11-15T07:53:00.041Z,99185.56
2022-11-15T07:55:28.538Z,99181.19
2022-11-15T07:57:56.602Z,99192.88
2022-11-15T08:00:24.690Z,99185.88
2022-11-15T08:02:52.901Z,99185.88
2022-11-15T08:05:20.940Z,99187.53
2022-11-15T08:07:48.664Z,99190.38
2022-11-15T08:10:17.954Z,99188.41
2022-11-15T08:12:45.712Z,99194.28
2022-11-15T08:15:13.532Z,99185.09
2022-11-15T08:17:41.669Z,99183.78
2022-11-15T08:20:09.480Z,99180.28
2022-11-15T08:22:38.261Z,99178.28
2022-11-15T08:25:06.568Z,99174.63
2022-11-15T08:27:34.536Z,99188.66
2022-11-15T08:30:03.128Z,99179.47
2022-11-15T08:32:32.572Z,99172.84
2022-11-15T08:35:00.634Z,99173.38
2022-11-15T08:37:28.427Z,99180.06
2022-11-15T08:39:56.383Z,99170.75
2022-11-15T08:42:24.217Z,99165.72
2022-11-15T08:44:52.964Z,99173.47
2022-11-15T08:47:21.520Z,99169.63
2022-11-15T08:49:49.336Z,99165.63
2022-11-15T08:52:17.043Z,99171.50
2022-11-15T08:54:44.980Z,99169.34
2022-11-15T08:57:12.808Z,99170.00
2022-11-15T08:59:41.074Z,99166.84
2022-11-15T09:02:09.194Z,99167.38
2022-11-15T09:04:36.967Z,99161.53
2022-11-15T09:07:04.892Z,99161.22
2022-11-15T09:09:34.083Z,99169.78
2022-11-15T09:12:03.055Z,99158.88
2022-11-15T09:14:31.047Z,99163.09
2022-11-15T09:16:59.536Z,99157.59
2022-11-15T09:19:27.416Z,99165.97
2022-11-15T09:21:56.016Z,99164.81
2022-11-15T09:24:24.490Z,99155.59
2022-11-15T09:29:38.471Z,99155.09
2022-11-15T09:32:06.318Z,99152.28
2022-11-15T09:34:34.651Z,99155.81
2022-11-15T09:37:02.531Z,99151.97
2022-11-15T09:39:30.175Z,99153.66
2022-11-15T09:41:58.123Z,99147.94
2022-11-15T09:44:28.062Z,99149.31
2022-11-15T09:46:56.866Z,99141.78
2022-11-15T09:49:24.564Z,99128.59
2022-11-15T09:51:53.178Z,99131.97
2022-11-15T09:57:13.129Z,99129.28
2022-11-15T09:59:43.548Z,99131.50
2022-11-15T10:02:11.455Z,99128.78
2022-11-15T10:04:39.178Z,99123.53
2022-11-15T10:07:07.009Z,99130.09
2022-11-15T10:09:37.489Z,99130.25
2022-11-15T10:12:05.679Z,99129.25
2022-11-15T10:14:33.396Z,99126.69
2022-11-15T10:17:01.283Z,99126.50
2022-11-15T10:19:29.144Z,99117.91
2022-11-15T10:21:57.442Z,99110.56
2022-11-15T10:24:25.424Z,99102.34
2022-11-15T10:26:53.289Z,99107.50
2022-11-15T10:29:26.484Z,99101.75
2022-11-15T10:31:55.199Z,99102.94
2022-11-15T10:34:23.544Z,99095.38
2022-11-15T10:36:51.463Z,99090.28
2022-11-15T10:42:10.176Z,99066.66
2022-11-15T10:44:42.460Z,99065.97
2022-11-15T10:47:10.299Z,99059.59
2022-11-15T10:49:38.245Z,99058.84
2022-11-15T10:52:06.310Z,99037.50
2022-11-15T10:54:34.402Z,99039.00
2022-11-15T10:57:02.627Z,99035.09
2022-11-15T10:59:33.701Z,99035.69
2022-11-15T11:02:05.614Z,99028.53
2022-11-15T11:04:33.651Z,99036.53
2022-11-15T11:07:01.551Z,99024.28
2022-11-15T11:09:30.021Z,99028.75
2022-11-15T11:11:58.043Z,99022.09
2022-11-15T11:14:28.321Z,99030.22
2022-11-15T11:16:56.161Z,99024.59
2022-11-15T11:19:24.303Z,99031.22
2022-11-15T11:21:52.538Z,99032.28
2022-11-15T11:24:20.338Z,99024.94
2022-11-15T11:26:51.668Z,99029.00
2022-11-15T11:29:22.339Z,99026.47
2022-11-15T11:31:50.314Z,99022.13
2022-11-15T11:34:19.357Z,99010.53
2022-11-15T11:36:47.676Z,99000.13
2022-11-15T11:39:15.500Z,99005.91
2022-11-15T11:41:43.387Z,98997.97
2022-11-15T11:44:11.425Z,98996.09
2022-11-15T11:46:39.794Z,98989.84
2022-11-15T11:49:07.641Z,98993.97
2022-11-15T11:51:35.371Z,98987.50
2022-11-15T11:54:03.368Z,98980.22
2022-11-15T11:56:31.186Z,98965.25
2022-11-15T11:59:02.690Z,98969.91
2022-11-15T12:01:30.988Z,98962.09
2022-11-15T12:03:59.376Z,98959.47
2022-11-15T12:06:27.247Z,98967.81
2022-11-15T12:08:55.178Z,98966.47
2022-11-15T12:11:24.997Z,98961.66
2022-11-15T12:13:52.798Z,98972.88
2022-11-15T12:16:20.821Z,98950.66
2022-11-15T12:18:48.616Z,98953.44
2022-11-15T12:21:17.230Z,98960.97
2022-11-15T12:23:45.665Z,98960.41
2022-11-15T12:26:13.960Z,98955.25
2022-11-15T12:28:58.385Z,98951.41
2022-11-15T12:31:29.791Z,98950.47
2022-11-15T12:34:00.673Z,98951.38
2022-11-15T12:36:32.290Z,98947.09
2022-11-15T12:39:00.087Z,98945.13
2022-11-15T12:41:27.990Z,98951.34
2022-11-15T12:43:55.822Z,98952.16
2022-11-15T12:46:24.333Z,98952.16
2022-11-15T12:48:52.360Z,98941.09
2022-11-15T12:51:20.329Z,98942.19
2022-11-15T12:53:48.227Z,98948.22
2022-11-15T12:56:16.273Z,98922.47
2022-11-15T12:58:44.893Z,98923.34
2022-11-15T13:01:12.623Z,98921.34
2022-11-15T13:03:40.844Z,98911.81
2022-11-15T13:06:08.981Z,98914.09
2022-11-15T13:08:36.786Z,98913.25
2022-11-15T13:11:04.992Z,98914.50
2022-11-15T13:13:32.953Z,98894.97
2022-11-15T13:16:00.829Z,98886.25
2022-11-15T13:18:28.680Z,98886.81
2022-11-15T13:21:01.967Z,98891.72
2022-11-15T13:23:32.024Z,98891.03
2022-11-15T13:26:00.633Z,98882.25
2022-11-15T13:28:28.710Z,98879.03
2022-11-15T13:30:56.700Z,98872.97
2022-11-15T13:33:24.586Z,98865.81
2022-11-15T13:35:54.926Z,98868.59
2022-11-15T13:38:22.964Z,98862.50
2022-11-15T13:40:51.092Z,98866.56
2022-11-15T13:43:18.932Z,98858.63
2022-11-15T13:45:46.915Z,98860.91
2022-11-15T13:48:19.965Z,98854.28
2022-11-15T13:50:47.796Z,98858.00
2022-11-15T13:53:15.623Z,98857.69
2022-11-15T13:55:43.577Z,98841.75
2022-11-15T13:58:14.177Z,98849.75
2022-11-15T14:00:45.206Z,98846.41
2022-11-15T14:03:15.510Z,98853.00
2022-11-15T14:05:43.390Z,98843.25
2022-11-15T14:08:11.429Z,98840.50
2022-11-15T14:10:39.379Z,98836.03
2022-11-15T14:13:07.704Z,98833.84
2022-11-15T14:15:35.854Z,98826.13
2022-11-15T14:18:03.656Z,98829.44
2022-11-15T14:20:32.049Z,98832.59
2022-11-15T14:23:00.098Z,98824.78
2022-11-15T14:25:29.264Z,98818.63
2022-11-15T14:27:57.248Z,98816.69
2022-11-15T14:30:25.557Z,98819.56
2022-11-15T14:32:53.469Z,98815.94
2022-11-15T14:35:21.321Z,98804.09
2022-11-15T14:37:52.235Z,98809.78
2022-11-15T14:40:20.142Z,98792.63
2022-11-15T14:42:47.905Z,98803.13
2022-11-15T14:45:16.391Z,98797.47
2022-11-15T14:47:44.243Z,98784.94
2022-11-15T14:50:14.551Z,98786.66
2022-11-15T14:52:43.548Z,98767.94
2022-11-15T14:55:11.412Z,98767.00
2022-11-15T14:57:39.234Z,98747.28
2022-11-15T15:00:07.152Z,98744.31
2022-11-15T15:02:37.970Z,98752.03
2022-11-15T15:05:05.854Z,98742.88
2022-11-15T15:07:33.871Z,98741.53
2022-11-15T15:10:37.841Z,98738.38
2022-11-15T15:12:53.792Z,98742.44
2022-11-15T15:15:21.651Z,98735.75
2022-11-15T15:17:49.750Z,98735.44
2022-11-15T15:20:17.684Z,98722.78
2022-11-15T15:22:45.659Z,98723.97
2022-11-15T15:25:14.185Z,98726.97
2022-11-15T15:27:42.444Z,98728.34
2022-11-15T15:30:10.301Z,98718.16
2022-11-15T15:32:38.048Z,98716.19
2022-11-15T15:35:06.564Z,98713.19
2022-11-15T15:37:35.479Z,98713.72
2022-11-15T15:40:03.490Z,98705.16
2022-11-15T15:42:31.555Z,98698.50
2022-11-15T15:44:59.336Z,98698.19
2022-11-15T15:47:27.161Z,98693.19
2022-11-15T15:49:57.241Z,98691.84
2022-11-15T15:52:26.287Z,98692.22
2022-11-15T15:54:54.096Z,98693.38
2022-11-15T15:57:22.675Z,98692.06
2022-11-15T15:59:50.529Z,98679.03
2022-11-15T16:02:21.931Z,98685.72
2022-11-15T16:04:49.891Z,98686.94
2022-11-15T16:07:17.833Z,98680.38
2022-11-15T16:10:04.381Z,98681.22
2022-11-15T16:12:34.328Z,98674.84
2022-11-15T16:15:02.318Z,98673.84
2022-11-15T16:17:34.174Z,98673.84
2022-11-15T16:20:02.442Z,98668.50
2022-11-15T16:22:30.566Z,98668.50
2022-11-15T16:25:01.401Z,98664.16
2022-11-15T16:27:29.176Z,98662.31
2022-11-15T16:29:57.120Z,98655.09
2022-11-15T16:32:25.373Z,98652.44
2022-11-15T16:34:53.280Z,98646.44
2022-11-15T16:37:22.937Z,98642.91
2022-11-15T16:39:50.717Z,98640.22
2022-11-15T16:42:18.517Z,98634.72
2022-11-15T16:44:46.684Z,98641.09
2022-11-15T16:47:14.701Z,98632.03
2022-11-15T16:49:42.499Z,98634.38
2022-11-15T16:52:10.537Z,98641.41
2022-11-15T16:54:38.290Z,98632.34
2022-11-15T16:57:06.195Z,98627.81
2022-11-15T16:59:38.132Z,98631.34
2022-11-15T17:02:06.587Z,98628.66
2022-11-15T17:04:34.841Z,98627.81
2022-11-15T17:07:02.721Z,98625.34
2022-11-15T17:09:30.696Z,98627.16
2022-11-15T17:15:14.390Z,98623.31
2022-11-15T17:17:42.253Z,98610.94
2022-11-15T17:20:11.238Z,98611.75
2022-11-15T17:22:42.068Z,98611.59
2022-11-15T17:25:09.840Z,98601.06
2022-11-15T17:27:38.517Z,98609.94
2022-11-15T17:30:06.582Z,98607.91
2022-11-15T17:32:34.483Z,98605.22
2022-11-15T17:35:03.813Z,98610.41
2022-11-15T17:37:31.711Z,98599.53
2022-11-15T17:39:59.919Z,98594.84
2022-11-15T17:42:27.744Z,98594.00
2022-11-15T17:44:55.850Z,98604.53
2022-11-15T17:47:24.252Z,98588.47
2022-11-15T17:49:52.279Z,98586.66
2022-11-15T17:52:20.582Z,98586.44
2022-11-15T17:54:48.422Z,98591.81
2022-11-15T17:57:16.369Z,98593.94
2022-11-15T17:59:45.142Z,98588.44
2022-11-15T18:02:13.309Z,98586.41
2022-11-15T18:04:41.731Z,98586.06
2022-11-15T18:07:12.075Z,98596.56
2022-11-15T18:09:42.540Z,98599.94
2022-11-15T18:12:12.486Z,98592.53
2022-11-15T18:14:40.469Z,98595.09
2022-11-15T18:17:08.794Z,98579.03
2022-11-15T18:19:36.793Z,98591.56
2022-11-15T18:22:05.794Z,98580.69
2022-11-15T18:24:33.709Z,98569.13
2022-11-15T18:27:01.779Z,98575.31
2022-11-15T18:29:29.979Z,98577.81
2022-11-15T18:31:59.118Z,98560.56
2022-11-15T18:34:29.117Z,98560.56
2022-11-15T18:36:56.942Z,98557.88
2022-11-15T18:39:24.833Z,98571.25
2022-11-15T18:41:53.311Z,98574.97
2022-11-15T18:44:21.543Z,98566.91
2022-11-15T18:46:49.403Z,98569.78
2022-11-15T18:49:20.869Z,98575.31
2022-11-15T18:51:48.744Z,98579.03
2022-11-15T18:54:16.988Z,98575.63
2022-11-15T18:56:46.232Z,98575.63
2022-11-15T18:59:14.036Z,98576.84
2022-11-15T19:01:43.544Z,98577.66
2022-11-15T19:04:11.557Z,98576.00
2022-11-15T19:06:40.250Z,98568.13
2022-11-15T19:09:08.082Z,98568.13
2022-11-15T19:11:36.133Z,98569.16
2022-11-15T19:14:04.290Z,98563.97
2022-11-15T19:16:33.368Z,98558.97
2022-11-15T19:19:01.708Z,98556.66
2022-11-15T19:21:29.588Z,98562.34
2022-11-15T19:23:57.455Z,98560.69
2022-11-15T19:26:26.531Z,98561.06
2022-11-15T19:28:54.804Z,98552.56
2022-11-15T19:31:24.041Z,98557.06
2022-11-15T19:33:52.056Z,98547.53
2022-11-15T19:36:19.937Z,98546.72
2022-11-15T19:38:48.550Z,98551.22
2022-11-15T19:41:16.506Z,98543.41
2022-11-15T19:43:44.909Z,98534.69
2022-11-15T19:46:12.767Z,98535.06
2022-11-15T19:48:40.751Z,98525.53
2022-11-15T19:51:08.988Z,98525.91
2022-11-15T19:53:37.221Z,98521.91
2022-11-15T19:56:06.043Z,98523.75
2022-11-15T19:58:34.227Z,98524.94
2022-11-15T20:01:02.511Z,98531.09
2022-11-15T20:03:31.844Z,98524.75
2022-11-15T20:05:59.996Z,98514.03
2022-11-15T20:08:28.176Z,98521.91
2022-11-15T20:10:56.666Z,98515.38
2022-11-15T20:13:25.019Z,98504.97
2022-11-15T20:15:54.741Z,98506.63
2022-11-15T20:18:22.842Z,98506.28
2022-11-15T20:20:51.167Z,98502.41
2022-11-15T20:23:19.102Z,98502.03
2022-11-15T20:25:47.101Z,98506.41
2022-11-15T20:28:15.143Z,98504.38
2022-11-15T20:30:43.068Z,98499.84
2022-11-15T20:33:11.050Z,98489.13
2022-11-15T20:35:39.311Z,98496.16
2022-11-15T20:38:07.221Z,98494.50
2022-11-15T20:40:37.907Z,98475.75
2022-11-15T20:43:05.767Z,98483.78
2022-11-15T20:45:33.935Z,98485.44
2022-11-15T20:48:01.931Z,98472.91
2022-11-15T20:50:42.591Z,98465.72
2022-11-15T20:53:12.743Z,98471.91
2022-11-15T20:55:41.946Z,98468.41
2022-11-15T20:58:09.786Z,98469.22
2022-11-15T21:00:38.374Z,98450.66
2022-11-15T21:03:07.472Z,98460.53
2022-11-15T21:05:35.752Z,98457.88
2022-11-15T21:08:04.289Z,98454.34
2022-11-15T21:10:49.333Z,98446.31
2022-11-15T21:13:17.339Z,98446.16
2022-11-15T21:15:50.033Z,98450.66
2022-11-15T21:18:18.669Z,98450.84
2022-11-15T21:20:46.605Z,98434.97
2022-11-15T21:23:14.567Z,98442.81
2022-11-15T21:25:42.769Z,98440.97
2022-11-15T21:28:12.860Z,98436.47
2022-11-15T21:30:41.130Z,98432.94
2022-11-15T21:33:09.051Z,98440.97
2022-11-15T21:35:36.947Z,98434.78
2022-11-15T21:38:04.934Z,98438.50
2022-11-15T21:40:34.238Z,98437.63
2022-11-15T21:43:02.714Z,98436.16
2022-11-15T21:45:30.679Z,98437.00
2022-11-15T21:47:58.756Z,98430.63
2022-11-15T21:50:26.728Z,98427.94
2022-11-15T21:52:55.498Z,98427.94
2022-11-15T21:55:23.931Z,98426.94
2022-11-15T21:57:52.289Z,98424.25
2022-11-15T22:00:37.435Z,98427.56
2022-11-15T22:03:08.256Z,98413.38
2022-11-15T22:05:36.628Z,98423.88
2022-11-15T22:08:04.493Z,98417.88
2022-11-15T22:10:32.414Z,98416.22
2022-11-15T22:13:00.204Z,98420.78
2022-11-15T22:15:29.874Z,98409.22
2022-11-15T22:18:01.405Z,98416.41
2022-11-15T22:20:44.433Z,98410.41
2022-11-15T22:23:13.028Z,98402.38
2022-11-15T22:25:43.281Z,98408.75
2022-11-15T22:28:11.954Z,98406.91
2022-11-15T22:30:41.270Z,98405.22
2022-11-15T22:33:09.223Z,98401.75
2022-11-15T22:35:37.136Z,98395.75
2022-11-15T22:38:06.493Z,98394.03
2022-11-15T22:40:34.550Z,98391.38
2022-11-15T22:43:02.494Z,98388.91
2022-11-15T22:45:30.400Z,98386.22
2022-11-15T22:47:58.239Z,98384.34
2022-11-15T22:50:26.081Z,98385.38
2022-11-15T22:52:54.196Z,98374.84
2022-11-15T22:55:22.171Z,98380.41
2022-11-15T22:57:50.068Z,98380.56
2022-11-15T23:00:18.803Z,98376.41
2022-11-15T23:02:49.589Z,98377.59
2022-11-15T23:05:21.346Z,98370.78
2022-11-15T23:07:49.212Z,98369.28
2022-11-15T23:10:34.454Z,98364.28
2022-11-15T23:13:17.695Z,98358.28
2022-11-15T23:16:03.206Z,98352.31
2022-11-15T23:18:31.045Z,98358.00
2022-11-15T23:20:59.557Z,98353.84
2022-11-15T23:23:26.295Z,98357.50
2022-11-15T23:25:56.421Z,98350.72
2022-11-15T23:28:24.598Z,98349.22
2022-11-15T23:31:09.604Z,98354.72
2022-11-15T23:33:54.525Z,98349.75
2022-11-15T23:36:24.296Z,98349.94
2022-11-15T23:38:52.960Z,98340.41
2022-11-15T23:41:20.682Z,98340.78
2022-11-15T23:43:48.494Z,98340.97
2022-11-15T23:46:16.330Z,98340.31
2022-11-15T23:48:44.119Z,98338.81
2022-11-15T23:51:12.236Z,98330.97
2022-11-15T23:53:40.128Z,98331.97
2022-11-15T23:56:07.883Z,98327.81
2022-11-15T23:58:35.870Z,98327.81
